Time;durP1;ratioP1;P1;durP2;ratioP2;P2;SDS_P1;SDS_P2;PMS_P1;PMS_P2;Temp;Humidity;BMP_temperature;BMP_pressure;BME280_temperature;BME280_humidity;BME280_pressure;Samples;Min_cycle;Max_cycle;Signal;HPM_P1;HPM_P2
2022/05/12 00:02:29;0.00;0.00;0.62;0.00;0.00;0.62;5.00;2.90;;;28.30;26.20;;;;;;2248090;61;21076;-57
2022/05/12 00:05:14;0.00;0.00;0.62;0.00;0.00;0.62;6.80;2.30;;;28.30;26.30;;;;;;2248769;61;20391;-60
2022/05/12 00:07:59;0.00;0.00;0.62;0.00;0.00;0.62;4.43;2.90;;;28.30;26.40;;;;;;2248410;61;20378;-62
2022/05/12 00:10:44;0.00;0.00;0.62;0.00;0.00;0.62;5.23;2.70;;;28.30;26.50;;;;;;2247864;61;20531;-60
2022/05/12 00:13:29;0.00;0.00;0.62;0.00;0.00;0.62;4.97;2.60;;;28.20;26.60;;;;;;2248574;61;20438;-62
2022/05/12 00:16:13;0.00;0.00;0.62;0.00;0.00;0.62;7.70;2.63;;;28.20;26.70;;;;;;2248315;61;20452;-61
2022/05/12 00:18:59;0.00;0.00;0.62;0.00;0.00;0.62;4.50;3.30;;;28.10;26.80;;;;;;2248396;61;20359;-61
2022/05/12 00:21:43;0.00;0.00;0.62;0.00;0.00;0.62;5.50;3.30;;;28.10;26.90;;;;;;2248141;61;20476;-61
2022/05/12 00:24:28;0.00;0.00;0.62;0.00;0.00;0.62;8.17;3.30;;;28.00;26.90;;;;;;2248349;61;20383;-62
2022/05/12 00:27:13;0.00;0.00;0.62;0.00;0.00;0.62;5.30;2.83;;;27.90;26.90;;;;;;2248314;61;20368;-59
2022/05/12 00:29:58;0.00;0.00;0.62;0.00;0.00;0.62;6.43;3.23;;;27.90;27.10;;;;;;2248351;61;20387;-61
2022/05/12 00:32:45;0.00;0.00;0.62;0.00;0.00;0.62;6.97;2.87;;;27.70;27.20;;;;;;2248078;61;20364;-62
2022/05/12 00:35:32;0.00;0.00;0.62;0.00;0.00;0.62;11.70;3.43;;;27.60;27.40;;;;;;2248622;61;20360;-60
2022/05/12 00:38:16;0.00;0.00;0.62;0.00;0.00;0.62;5.07;2.70;;;27.50;27.50;;;;;;2248346;61;20892;-61
2022/05/12 00:41:01;0.00;0.00;0.62;0.00;0.00;0.62;5.80;2.97;;;27.40;27.70;;;;;;2248028;61;20939;-54
2022/05/12 00:43:50;0.00;0.00;0.62;0.00;0.00;0.62;4.77;3.33;;;27.30;27.80;;;;;;2248230;61;20442;-61
2022/05/12 00:46:38;0.00;0.00;0.62;0.00;0.00;0.62;8.20;3.50;;;27.20;27.90;;;;;;2248102;61;20407;-58
2022/05/12 00:49:29;0.00;0.00;0.62;0.00;0.00;0.62;8.10;3.17;;;27.10;28.00;;;;;;2248120;61;20470;-59
2022/05/12 00:52:19;0.00;0.00;0.62;0.00;0.00;0.62;6.77;3.27;;;27.00;28.10;;;;;;2247714;61;20959;-61
2022/05/12 00:55:09;0.00;0.00;0.62;0.00;0.00;0.62;5.00;3.13;;;26.90;28.30;;;;;;2248068;61;20496;-59
2022/05/12 00:57:58;0.00;0.00;0.62;0.00;0.00;0.62;6.93;3.40;;;26.80;28.40;;;;;;2248255;61;20384;-59
2022/05/12 01:00:43;0.00;0.00;0.62;0.00;0.00;0.62;4.73;2.83;;;26.70;28.50;;;;;;2245193;61;20385;-58
2022/05/12 01:03:28;0.00;0.00;0.62;0.00;0.00;0.62;5.73;3.20;;;26.70;28.70;;;;;;2472050;53;20401;-55
2022/05/12 01:06:14;0.00;0.00;0.62;0.00;0.00;0.62;4.73;2.50;;;26.60;28.80;;;;;;2240352;61;20409;-60
2022/05/12 01:09:00;0.00;0.00;0.62;0.00;0.00;0.62;4.83;2.77;;;26.50;28.70;;;;;;2240021;61;20370;-58
2022/05/12 01:11:46;0.00;0.00;0.62;0.00;0.00;0.62;6.53;2.60;;;26.50;28.70;;;;;;2240144;61;20821;-57
2022/05/12 01:14:31;0.00;0.00;0.62;0.00;0.00;0.62;5.43;2.80;;;26.50;28.80;;;;;;2240343;61;20398;-60
2022/05/12 01:17:17;0.00;0.00;0.62;0.00;0.00;0.62;3.53;2.13;;;26.50;28.80;;;;;;2240025;61;20478;-58
2022/05/12 01:20:03;0.00;0.00;0.62;0.00;0.00;0.62;6.00;3.23;;;26.40;28.80;;;;;;2240349;61;20417;-57
2022/05/12 01:22:54;0.00;0.00;0.62;0.00;0.00;0.62;2.80;1.93;;;26.40;28.80;;;;;;2239936;61;20396;-60
2022/05/12 01:25:40;0.00;0.00;0.62;0.00;0.00;0.62;3.57;2.13;;;26.40;28.80;;;;;;2240231;61;20462;-58
2022/05/12 01:28:25;0.00;0.00;0.62;0.00;0.00;0.62;4.10;2.10;;;26.40;28.80;;;;;;2240277;61;20906;-59
2022/05/12 01:31:15;0.00;0.00;0.62;0.00;0.00;0.62;5.77;2.63;;;26.30;28.80;;;;;;2239701;61;20356;-58
2022/05/12 01:34:01;0.00;0.00;0.62;0.00;0.00;0.62;5.93;2.33;;;26.30;28.90;;;;;;2240491;61;20397;-61
2022/05/12 01:36:46;0.00;0.00;0.62;0.00;0.00;0.62;3.33;1.90;;;26.30;28.90;;;;;;2239877;61;20409;-58
2022/05/12 01:39:30;0.00;0.00;0.62;0.00;0.00;0.62;3.53;2.27;;;26.30;29.00;;;;;;2240294;61;20450;-56
2022/05/12 01:42:17;0.00;0.00;0.62;0.00;0.00;0.62;3.70;2.17;;;26.20;28.90;;;;;;2239638;61;20393;-56
2022/05/12 01:45:03;0.00;0.00;0.62;0.00;0.00;0.62;2.93;1.60;;;26.20;28.90;;;;;;2242437;61;20538;-60
2022/05/12 01:47:50;0.00;0.00;0.62;0.00;0.00;0.62;4.73;2.27;;;26.20;29.00;;;;;;2239943;61;20457;-57
2022/05/12 01:50:34;0.00;0.00;0.62;0.00;0.00;0.62;2.93;2.00;;;26.20;29.00;;;;;;2239801;61;20373;-56
2022/05/12 01:53:19;0.00;0.00;0.62;0.00;0.00;0.62;3.10;1.90;;;26.20;28.90;;;;;;2239466;61;20848;-57
2022/05/12 01:56:04;0.00;0.00;0.62;0.00;0.00;0.62;3.80;1.63;;;26.20;28.90;;;;;;2240172;61;20413;-54
2022/05/12 01:58:50;0.00;0.00;0.62;0.00;0.00;0.62;2.90;1.77;;;26.10;28.80;;;;;;2239729;61;20892;-58
2022/05/12 02:01:35;0.00;0.00;0.62;0.00;0.00;0.62;3.03;1.67;;;26.10;28.80;;;;;;2239500;61;21018;-54
2022/05/12 02:04:19;0.00;0.00;0.62;0.00;0.00;0.62;3.03;1.80;;;26.00;28.70;;;;;;2240058;61;20396;-59
2022/05/12 02:07:04;0.00;0.00;0.62;0.00;0.00;0.62;3.20;1.77;;;26.00;28.70;;;;;;2240095;61;20413;-56
2022/05/12 02:09:49;0.00;0.00;0.62;0.00;0.00;0.62;2.57;1.60;;;26.00;28.60;;;;;;2240073;61;20449;-59
2022/05/12 02:12:34;0.00;0.00;0.62;0.00;0.00;0.62;3.27;1.50;;;26.00;28.60;;;;;;2239761;61;20449;-62
2022/05/12 02:15:21;0.00;0.00;0.62;0.00;0.00;0.62;5.07;2.07;;;25.90;28.40;;;;;;2239927;61;20389;-58
2022/05/12 02:18:06;0.00;0.00;0.62;0.00;0.00;0.62;4.30;1.30;;;25.90;28.20;;;;;;2239815;61;20778;-57
2022/05/12 02:20:51;0.00;0.00;0.62;0.00;0.00;0.62;2.57;1.70;;;25.80;28.00;;;;;;2239949;61;20361;-54
2022/05/12 02:23:36;0.00;0.00;0.62;0.00;0.00;0.62;2.53;1.67;;;25.80;27.80;;;;;;2244845;61;20802;-62
2022/05/12 02:26:21;0.00;0.00;0.62;0.00;0.00;0.62;3.73;1.47;;;25.70;27.50;;;;;;2240247;61;20875;-54
2022/05/12 02:29:06;0.00;0.00;0.62;0.00;0.00;0.62;3.10;1.83;;;25.70;27.20;;;;;;2240128;61;20389;-59
2022/05/12 02:31:53;0.00;0.00;0.62;0.00;0.00;0.62;2.20;1.40;;;25.50;27.00;;;;;;2239334;61;20445;-58
2022/05/12 02:34:37;0.00;0.00;0.62;0.00;0.00;0.62;2.47;1.03;;;25.50;27.00;;;;;;2240077;61;20385;-56
2022/05/12 02:37:23;0.00;0.00;0.62;0.00;0.00;0.62;4.33;1.10;;;25.40;27.00;;;;;;2239925;61;20934;-58
2022/05/12 02:40:10;0.00;0.00;0.62;0.00;0.00;0.62;2.20;1.30;;;25.40;27.00;;;;;;2240164;61;20470;-56
2022/05/12 02:42:57;0.00;0.00;0.62;0.00;0.00;0.62;1.70;0.90;;;25.30;27.10;;;;;;2240178;61;20388;-56
2022/05/12 02:45:41;0.00;0.00;0.62;0.00;0.00;0.62;4.80;1.10;;;25.20;27.10;;;;;;2239870;61;20373;-61
2022/05/12 02:48:30;0.00;0.00;0.62;0.00;0.00;0.62;2.73;1.30;;;25.20;27.00;;;;;;2239977;61;20413;-62
2022/05/12 02:51:15;0.00;0.00;0.62;0.00;0.00;0.62;2.70;1.20;;;25.10;27.00;;;;;;2239476;61;20949;-58
2022/05/12 02:53:59;0.00;0.00;0.62;0.00;0.00;0.62;1.73;1.20;;;25.10;27.00;;;;;;2239576;61;20461;-58
2022/05/12 02:56:44;0.00;0.00;0.62;0.00;0.00;0.62;5.00;1.47;;;25.00;26.90;;;;;;2240060;61;20464;-61
2022/05/12 02:59:29;0.00;0.00;0.62;0.00;0.00;0.62;3.80;1.57;;;24.90;26.80;;;;;;2239718;61;20381;-57
2022/05/12 03:02:14;0.00;0.00;0.62;0.00;0.00;0.62;2.50;1.20;;;24.90;26.80;;;;;;2239548;61;20388;-53
2022/05/12 03:05:00;0.00;0.00;0.62;0.00;0.00;0.62;3.17;0.97;;;24.80;26.70;;;;;;2240230;61;20503;-58
2022/05/12 03:07:44;0.00;0.00;0.62;0.00;0.00;0.62;2.77;1.40;;;24.70;26.60;;;;;;2239742;61;20509;-61
2022/05/12 03:10:30;0.00;0.00;0.62;0.00;0.00;0.62;3.47;1.17;;;24.70;26.60;;;;;;2240498;61;20425;-59
2022/05/12 03:13:15;0.00;0.00;0.62;0.00;0.00;0.62;3.77;1.30;;;24.70;26.60;;;;;;2240426;61;20390;-59
2022/05/12 03:16:00;0.00;0.00;0.62;0.00;0.00;0.62;1.60;1.10;;;24.60;26.50;;;;;;2240334;61;20938;-55
2022/05/12 03:18:46;0.00;0.00;0.62;0.00;0.00;0.62;3.90;1.33;;;24.50;26.40;;;;;;2240785;61;20433;-59
2022/05/12 03:21:32;0.00;0.00;0.62;0.00;0.00;0.62;2.37;1.20;;;24.50;26.40;;;;;;2239956;61;20369;-59
2022/05/12 03:24:18;0.00;0.00;0.62;0.00;0.00;0.62;2.00;1.00;;;24.40;26.40;;;;;;2240439;61;20794;-58
2022/05/12 03:27:04;0.00;0.00;0.62;0.00;0.00;0.62;2.33;1.00;;;24.30;26.30;;;;;;2240691;61;20374;-65
2022/05/12 03:29:48;0.00;0.00;0.62;0.00;0.00;0.62;2.97;1.30;;;24.30;26.30;;;;;;2240548;61;20374;-59
2022/05/12 03:32:33;0.00;0.00;0.62;0.00;0.00;0.62;3.47;1.30;;;24.20;26.30;;;;;;2240192;61;20365;-57
2022/05/12 03:35:18;0.00;0.00;0.62;0.00;0.00;0.62;2.90;1.30;;;24.10;26.20;;;;;;2240343;61;20393;-60
2022/05/12 03:38:05;0.00;0.00;0.62;0.00;0.00;0.62;2.43;1.30;;;24.00;26.20;;;;;;2240383;61;20930;-56
2022/05/12 03:40:51;0.00;0.00;0.62;0.00;0.00;0.62;3.70;1.20;;;23.90;26.30;;;;;;2239814;61;20369;-59
2022/05/12 03:46:39;0.00;0.00;0.62;0.00;0.00;0.62;2.13;1.13;;;23.80;26.40;;;;;;2240656;61;20370;-57
2022/05/12 03:49:24;0.00;0.00;0.62;0.00;0.00;0.62;2.80;1.00;;;23.70;26.50;;;;;;2240246;61;20365;-62
2022/05/12 03:52:09;0.00;0.00;0.62;0.00;0.00;0.62;3.23;1.40;;;23.60;26.50;;;;;;2239801;61;20781;-55
2022/05/12 03:54:55;0.00;0.00;0.62;0.00;0.00;0.62;3.90;1.53;;;23.50;26.60;;;;;;2240540;61;21206;-59
2022/05/12 03:57:40;0.00;0.00;0.62;0.00;0.00;0.62;3.83;1.40;;;23.40;26.70;;;;;;2242506;61;20828;-55
2022/05/12 04:00:29;0.00;0.00;0.62;0.00;0.00;0.62;3.60;1.17;;;23.30;26.70;;;;;;2239865;61;20362;-61
2022/05/12 04:03:13;0.00;0.00;0.62;0.00;0.00;0.62;2.57;1.10;;;23.20;26.80;;;;;;2240456;61;20479;-60
2022/05/12 04:06:01;0.00;0.00;0.62;0.00;0.00;0.62;3.73;1.30;;;23.10;26.90;;;;;;2240291;61;20754;-56
2022/05/12 04:08:46;0.00;0.00;0.62;0.00;0.00;0.62;2.83;1.40;;;23.10;27.00;;;;;;2242636;61;20394;-53
2022/05/12 04:11:32;0.00;0.00;0.62;0.00;0.00;0.62;2.70;1.30;;;23.00;27.00;;;;;;2239984;61;20975;-57
2022/05/12 04:14:17;0.00;0.00;0.62;0.00;0.00;0.62;7.20;1.77;;;22.90;27.10;;;;;;2240373;61;20389;-59
2022/05/12 04:17:02;0.00;0.00;0.62;0.00;0.00;0.62;1.93;1.13;;;22.80;27.20;;;;;;2240271;61;20369;-58
2022/05/12 04:19:50;0.00;0.00;0.62;0.00;0.00;0.62;4.40;1.53;;;22.70;27.40;;;;;;2240492;61;20453;-62
2022/05/12 04:22:34;0.00;0.00;0.62;0.00;0.00;0.62;2.70;1.33;;;22.60;27.50;;;;;;2239689;61;20505;-59
2022/05/12 04:25:19;0.00;0.00;0.62;0.00;0.00;0.62;3.07;1.40;;;22.50;28.00;;;;;;2240384;61;20461;-57
2022/05/12 04:28:05;0.00;0.00;0.62;0.00;0.00;0.62;2.60;1.30;;;22.40;27.60;;;;;;2240352;61;20362;-59
2022/05/12 04:30:51;0.00;0.00;0.62;0.00;0.00;0.62;3.07;1.07;;;22.40;28.20;;;;;;2239681;61;20467;-57
2022/05/12 04:36:38;0.00;0.00;0.62;0.00;0.00;0.62;4.27;1.60;;;22.20;27.90;;;;;;2239976;61;20397;-58
2022/05/12 04:39:23;0.00;0.00;0.62;0.00;0.00;0.62;2.37;1.20;;;22.20;28.10;;;;;;2240363;61;20409;-59
2022/05/12 04:42:07;0.00;0.00;0.62;0.00;0.00;0.62;3.20;1.60;;;22.10;28.10;;;;;;2239760;61;20393;-58
2022/05/12 04:44:53;0.00;0.00;0.62;0.00;0.00;0.62;2.60;1.10;;;22.10;28.10;;;;;;2240272;61;20475;-57
2022/05/12 04:47:39;0.00;0.00;0.62;0.00;0.00;0.62;4.77;1.27;;;22.00;28.00;;;;;;2240274;61;20369;-57
2022/05/12 04:50:27;0.00;0.00;0.62;0.00;0.00;0.62;2.80;1.53;;;21.90;28.20;;;;;;2239890;61;20405;-58
2022/05/12 04:53:11;0.00;0.00;0.62;0.00;0.00;0.62;2.77;1.50;;;21.90;28.30;;;;;;2240202;61;20437;-54
2022/05/12 04:55:56;0.00;0.00;0.62;0.00;0.00;0.62;3.50;1.20;;;21.80;28.30;;;;;;2245128;61;20413;-56
2022/05/12 04:58:40;0.00;0.00;0.62;0.00;0.00;0.62;4.07;1.40;;;21.80;28.40;;;;;;2240271;61;20831;-58
2022/05/12 05:01:26;0.00;0.00;0.62;0.00;0.00;0.62;4.87;2.13;;;21.80;28.50;;;;;;2239742;61;20421;-60
2022/05/12 05:04:11;0.00;0.00;0.62;0.00;0.00;0.62;2.83;1.40;;;21.80;28.60;;;;;;2240223;61;20962;-59
2022/05/12 05:06:56;0.00;0.00;0.62;0.00;0.00;0.62;3.40;1.50;;;21.70;28.50;;;;;;2240033;61;20361;-57
2022/05/12 05:09:41;0.00;0.00;0.62;0.00;0.00;0.62;3.67;1.47;;;21.70;28.60;;;;;;2240166;61;20458;-55
2022/05/12 05:12:26;0.00;0.00;0.62;0.00;0.00;0.62;3.20;1.13;;;21.70;28.60;;;;;;2239724;61;20837;-54
2022/05/12 05:15:13;0.00;0.00;0.62;0.00;0.00;0.62;3.77;1.40;;;21.60;28.50;;;;;;2240043;61;20821;-59
2022/05/12 05:17:59;0.00;0.00;0.62;0.00;0.00;0.62;2.87;1.47;;;21.60;28.60;;;;;;2240334;61;20366;-56
2022/05/12 05:20:46;0.00;0.00;0.62;0.00;0.00;0.62;1.60;0.97;;;21.60;28.70;;;;;;2239881;61;20536;-56
2022/05/12 05:23:31;0.00;0.00;0.62;0.00;0.00;0.62;2.83;1.27;;;21.60;28.60;;;;;;2240255;61;20397;-58
2022/05/12 05:26:16;0.00;0.00;0.62;0.00;0.00;0.62;1.83;1.20;;;21.60;28.60;;;;;;2240157;61;20417;-58
2022/05/12 05:29:01;0.00;0.00;0.62;0.00;0.00;0.62;2.33;1.20;;;21.60;28.60;;;;;;2239814;61;20361;-55
2022/05/12 05:31:46;0.00;0.00;0.62;0.00;0.00;0.62;2.77;1.00;;;21.60;28.60;;;;;;2239820;61;20389;-59
2022/05/12 05:34:32;0.00;0.00;0.62;0.00;0.00;0.62;2.90;1.00;;;21.60;28.60;;;;;;2239023;61;20401;-58
2022/05/12 05:37:16;0.00;0.00;0.62;0.00;0.00;0.62;3.93;1.80;;;21.50;28.50;;;;;;2239091;61;20393;-58
2022/05/12 05:40:03;0.00;0.00;0.62;0.00;0.00;0.62;2.40;1.03;;;21.50;28.50;;;;;;2239735;61;20377;-60
2022/05/12 05:42:49;0.00;0.00;0.62;0.00;0.00;0.62;2.37;1.00;;;21.50;28.50;;;;;;2240359;61;20978;-55
2022/05/12 05:45:34;0.00;0.00;0.62;0.00;0.00;0.62;5.40;1.30;;;21.50;28.50;;;;;;2240391;61;20393;-59
2022/05/12 05:48:18;0.00;0.00;0.62;0.00;0.00;0.62;2.27;1.40;;;21.50;28.50;;;;;;2240561;61;20449;-58
2022/05/12 05:54:07;0.00;0.00;0.62;0.00;0.00;0.62;2.00;1.10;;;21.50;28.60;;;;;;2240273;61;20424;-61
2022/05/12 05:56:52;0.00;0.00;0.62;0.00;0.00;0.62;2.03;1.10;;;21.50;28.50;;;;;;2240377;61;20392;-59
2022/05/12 05:59:37;0.00;0.00;0.62;0.00;0.00;0.62;4.90;1.87;;;21.50;28.60;;;;;;2239677;61;20369;-58
2022/05/12 06:02:22;0.00;0.00;0.62;0.00;0.00;0.62;3.30;1.47;;;21.50;28.70;;;;;;2239778;61;20393;-55
2022/05/12 06:05:08;0.00;0.00;0.62;0.00;0.00;0.62;2.33;1.50;;;21.50;28.80;;;;;;2240402;61;20469;-57
2022/05/12 06:07:54;0.00;0.00;0.62;0.00;0.00;0.62;1.97;1.27;;;21.50;28.80;;;;;;2240159;61;20369;-56
2022/05/12 06:10:39;0.00;0.00;0.62;0.00;0.00;0.62;1.70;1.00;;;21.50;28.70;;;;;;2240083;61;20397;-59
2022/05/12 06:13:23;0.00;0.00;0.62;0.00;0.00;0.62;3.33;1.23;;;21.50;28.60;;;;;;2247317;61;20905;-56
2022/05/12 06:16:08;0.00;0.00;0.62;0.00;0.00;0.62;3.53;1.10;;;21.50;28.60;;;;;;2248413;61;20371;-64
2022/05/12 06:18:53;0.00;0.00;0.62;0.00;0.00;0.62;2.77;1.17;;;21.50;28.60;;;;;;2248259;61;20403;-59
2022/05/12 06:21:38;0.00;0.00;0.62;0.00;0.00;0.62;2.60;1.47;;;21.50;28.60;;;;;;2247522;61;20395;-58
2022/05/12 06:24:24;0.00;0.00;0.62;0.00;0.00;0.62;4.03;2.30;;;21.50;28.60;;;;;;2248134;61;20385;-57
2022/05/12 06:27:08;0.00;0.00;0.62;0.00;0.00;0.62;3.03;1.40;;;21.50;28.70;;;;;;2248404;61;20845;-57
2022/05/12 06:29:55;0.00;0.00;0.62;0.00;0.00;0.62;2.60;1.70;;;21.50;28.80;;;;;;2248076;61;20864;-54
2022/05/12 06:32:40;0.00;0.00;0.62;0.00;0.00;0.62;3.13;1.60;;;21.50;28.90;;;;;;2246425;61;20484;-60
2022/05/12 06:35:26;0.00;0.00;0.62;0.00;0.00;0.62;4.23;1.93;;;21.50;28.90;;;;;;2247539;61;20387;-59
2022/05/12 06:38:11;0.00;0.00;0.62;0.00;0.00;0.62;2.77;1.57;;;21.50;29.10;;;;;;2248045;61;20367;-57
2022/05/12 06:40:57;0.00;0.00;0.62;0.00;0.00;0.62;2.50;1.80;;;21.50;29.10;;;;;;2247415;61;20415;-65
2022/05/12 06:43:45;0.00;0.00;0.62;0.00;0.00;0.62;2.37;1.40;;;21.50;29.20;;;;;;2247904;61;20395;-61
2022/05/12 06:46:29;0.00;0.00;0.62;0.00;0.00;0.62;7.37;1.77;;;21.50;29.30;;;;;;2245506;61;20376;-61
2022/05/12 06:49:14;0.00;0.00;0.62;0.00;0.00;0.62;3.10;1.57;;;21.60;29.40;;;;;;2244921;61;20423;-61
2022/05/12 06:51:59;0.00;0.00;0.62;0.00;0.00;0.62;6.30;1.70;;;21.60;29.40;;;;;;2249285;61;20365;-63
2022/05/12 06:54:44;0.00;0.00;0.62;0.00;0.00;0.62;2.17;1.43;;;21.70;29.50;;;;;;2244840;61;20798;-63
2022/05/12 06:57:34;0.00;0.00;0.62;0.00;0.00;0.62;2.10;1.40;;;21.70;29.50;;;;;;2244525;61;20991;-58
2022/05/12 07:00:20;0.00;0.00;0.62;0.00;0.00;0.62;2.03;1.40;;;21.70;29.50;;;;;;2244237;61;20369;-65
2022/05/12 07:03:06;0.00;0.00;0.62;0.00;0.00;0.62;3.03;1.13;;;21.80;29.60;;;;;;2244434;61;20432;-64
2022/05/12 07:05:51;0.00;0.00;0.62;0.00;0.00;0.62;2.50;1.30;;;21.80;29.50;;;;;;2244775;61;20452;-63
2022/05/12 07:08:40;0.00;0.00;0.62;0.00;0.00;0.62;3.77;1.43;;;21.80;29.50;;;;;;2244208;61;20774;-62
2022/05/12 07:11:24;0.00;0.00;0.62;0.00;0.00;0.62;3.63;1.50;;;21.90;29.60;;;;;;2244225;61;20409;-64
2022/05/12 07:14:10;0.00;0.00;0.62;0.00;0.00;0.62;2.90;1.30;;;21.90;29.60;;;;;;2244535;61;20465;-64
2022/05/12 07:16:55;0.00;0.00;0.62;0.00;0.00;0.62;2.03;1.20;;;22.00;29.70;;;;;;2244871;61;20829;-62
2022/05/12 07:19:40;0.00;0.00;0.62;0.00;0.00;0.62;3.00;1.30;;;22.00;29.60;;;;;;2244319;61;20424;-62
2022/05/12 07:28:33;0.00;0.00;0.62;0.00;0.00;0.62;2.80;1.50;;;22.10;29.50;;;;;;2244674;61;20360;-64
2022/05/12 07:31:21;0.00;0.00;0.62;0.00;0.00;0.62;1.93;1.20;;;22.20;29.50;;;;;;2244312;61;20360;-61
2022/05/12 07:34:06;0.00;0.00;0.62;0.00;0.00;0.62;3.80;1.60;;;22.20;29.50;;;;;;2244491;61;20388;-60
2022/05/12 07:36:53;0.00;0.00;0.62;0.00;0.00;0.62;3.00;1.33;;;22.30;29.50;;;;;;2244848;61;20372;-62
2022/05/12 07:39:38;0.00;0.00;0.62;0.00;0.00;0.62;2.57;1.27;;;22.30;29.50;;;;;;2244678;61;20372;-62
2022/05/12 07:42:22;0.00;0.00;0.62;0.00;0.00;0.62;3.77;1.17;;;22.40;29.50;;;;;;2244216;61;20397;-66
2022/05/12 07:45:08;0.00;0.00;0.62;0.00;0.00;0.62;1.90;1.13;;;22.40;29.40;;;;;;2244696;61;20818;-65
2022/05/12 07:47:54;0.00;0.00;0.62;0.00;0.00;0.62;2.67;1.60;;;22.40;29.40;;;;;;2246873;61;20369;-66
2022/05/12 07:50:39;0.00;0.00;0.62;0.00;0.00;0.62;2.33;1.23;;;22.50;29.50;;;;;;2244045;61;20420;-63
2022/05/12 07:53:25;0.00;0.00;0.62;0.00;0.00;0.62;2.00;1.10;;;22.50;29.40;;;;;;2244429;61;20361;-63
2022/05/12 07:56:10;0.00;0.00;0.62;0.00;0.00;0.62;2.90;1.73;;;22.50;29.40;;;;;;2244051;61;20373;-66
2022/05/12 07:58:57;0.00;0.00;0.62;0.00;0.00;0.62;2.73;1.70;;;22.60;29.40;;;;;;2244762;61;20392;-66
2022/05/12 08:01:41;0.00;0.00;0.62;0.00;0.00;0.62;3.17;1.60;;;22.60;29.90;;;;;;2244127;61;20799;-65
2022/05/12 08:04:28;0.00;0.00;0.62;0.00;0.00;0.62;3.27;1.40;;;22.70;29.40;;;;;;2244076;61;20487;-66
2022/05/12 08:07:12;0.00;0.00;0.62;0.00;0.00;0.62;2.23;1.30;;;22.70;29.30;;;;;;2244560;61;20444;-66
2022/05/12 08:09:58;0.00;0.00;0.62;0.00;0.00;0.62;2.70;1.37;;;22.70;29.30;;;;;;2243976;61;20830;-65
2022/05/12 08:12:43;0.00;0.00;0.62;0.00;0.00;0.62;3.17;1.53;;;22.80;29.30;;;;;;2244040;61;20372;-68
2022/05/12 08:15:28;0.00;0.00;0.62;0.00;0.00;0.62;4.63;1.47;;;22.80;29.20;;;;;;2244287;61;20388;-66
2022/05/12 08:18:16;0.00;0.00;0.62;0.00;0.00;0.62;2.50;1.37;;;22.90;29.20;;;;;;2243718;61;20376;-64
2022/05/12 08:21:03;0.00;0.00;0.62;0.00;0.00;0.62;4.23;1.60;;;22.90;29.20;;;;;;2244189;61;20419;-65
2022/05/12 08:23:48;0.00;0.00;0.62;0.00;0.00;0.62;2.80;1.27;;;22.90;29.10;;;;;;2244365;61;20397;-64
2022/05/12 08:26:33;0.00;0.00;0.62;0.00;0.00;0.62;4.73;1.20;;;23.00;29.10;;;;;;2244397;61;20360;-65
2022/05/12 08:29:19;0.00;0.00;0.62;0.00;0.00;0.62;3.57;1.20;;;23.00;29.00;;;;;;2244663;61;20392;-59
2022/05/12 08:32:04;0.00;0.00;0.62;0.00;0.00;0.62;2.97;1.30;;;23.00;29.00;;;;;;2243974;61;20518;-63
2022/05/12 08:34:48;0.00;0.00;0.62;0.00;0.00;0.62;3.63;1.47;;;23.00;28.90;;;;;;2244670;61;20387;-64
2022/05/12 08:37:35;0.00;0.00;0.62;0.00;0.00;0.62;3.67;1.23;;;23.10;28.80;;;;;;2244526;61;20381;-63
2022/05/12 08:40:33;0.00;0.00;0.62;0.00;0.00;0.62;2.00;1.50;;;23.10;28.80;;;;;;2245205;61;20396;-65
2022/05/12 08:43:24;0.00;0.00;0.62;0.00;0.00;0.62;2.33;1.57;;;23.20;28.80;;;;;;2244658;61;20940;-63
2022/05/12 08:46:14;0.00;0.00;0.62;0.00;0.00;0.62;1.97;1.40;;;23.20;28.90;;;;;;2243070;61;20782;-62
2022/05/12 08:49:16;0.00;0.00;0.62;0.00;0.00;0.62;2.23;1.50;;;23.20;28.80;;;;;;2244991;61;20728;-63
2022/05/12 08:52:13;0.00;0.00;0.62;0.00;0.00;0.62;5.70;1.83;;;23.30;28.90;;;;;;2243861;61;20449;-62
2022/05/12 08:55:09;0.00;0.00;0.62;0.00;0.00;0.62;4.50;1.60;;;23.30;28.70;;;;;;2244499;61;20384;-62
2022/05/12 08:57:58;0.00;0.00;0.62;0.00;0.00;0.62;2.13;1.50;;;23.30;28.50;;;;;;2245236;61;20376;-60
2022/05/12 09:00:54;0.00;0.00;0.62;0.00;0.00;0.62;3.33;1.83;;;23.40;28.50;;;;;;2243798;61;20364;-64
2022/05/12 09:03:53;0.00;0.00;0.62;0.00;0.00;0.62;3.73;1.67;;;23.40;28.50;;;;;;2244872;61;20400;-65
2022/05/12 09:06:43;0.00;0.00;0.62;0.00;0.00;0.62;3.57;1.57;;;23.40;28.40;;;;;;2244746;61;20388;-61
2022/05/12 09:09:33;0.00;0.00;0.62;0.00;0.00;0.62;4.33;1.47;;;23.40;28.50;;;;;;2244915;61;20967;-64
2022/05/12 09:12:32;0.00;0.00;0.62;0.00;0.00;0.62;2.43;1.30;;;23.50;28.50;;;;;;2244503;61;20803;-63
2022/05/12 09:15:22;0.00;0.00;0.62;0.00;0.00;0.62;5.70;1.60;;;23.50;28.50;;;;;;2245211;61;20389;-65
2022/05/12 09:18:15;0.00;0.00;0.62;0.00;0.00;0.62;1.80;1.37;;;23.50;28.40;;;;;;2247282;61;20425;-72
2022/05/12 09:21:01;0.00;0.00;0.62;0.00;0.00;0.62;2.43;1.30;;;23.60;28.40;;;;;;2244822;61;20396;-63
2022/05/12 09:23:46;0.00;0.00;0.62;0.00;0.00;0.62;2.40;1.37;;;23.60;28.30;;;;;;2243983;61;20392;-59
2022/05/12 09:26:37;0.00;0.00;0.62;0.00;0.00;0.62;2.53;1.33;;;23.60;28.70;;;;;;2244742;61;20365;-64
2022/05/12 09:29:26;0.00;0.00;0.62;0.00;0.00;0.62;1.97;1.43;;;23.70;28.10;;;;;;2244491;61;20376;-57
2022/05/12 09:32:23;0.00;0.00;0.62;0.00;0.00;0.62;2.20;1.50;;;23.70;28.00;;;;;;2243773;61;20428;-64
2022/05/12 09:35:22;0.00;0.00;0.62;0.00;0.00;0.62;2.60;1.40;;;23.80;28.10;;;;;;2245454;61;20399;-56
2022/05/12 09:38:22;0.00;0.00;0.62;0.00;0.00;0.62;2.67;1.57;;;23.80;28.00;;;;;;2245666;61;20444;-59
2022/05/12 09:41:15;0.00;0.00;0.62;0.00;0.00;0.62;3.23;2.00;;;23.80;28.00;;;;;;2243977;61;20380;-57
2022/05/12 09:44:15;0.00;0.00;0.62;0.00;0.00;0.62;1.87;1.10;;;23.80;27.80;;;;;;2244365;61;20980;-57
2022/05/12 09:47:07;0.00;0.00;0.62;0.00;0.00;0.62;2.73;1.40;;;23.90;27.80;;;;;;2244351;61;20913;-61
2022/05/12 09:50:16;0.00;0.00;0.62;0.00;0.00;0.62;2.87;1.43;;;23.90;27.80;;;;;;2244087;61;20456;-59
2022/05/12 09:53:03;0.00;0.00;0.62;0.00;0.00;0.62;4.23;1.87;;;24.00;27.80;;;;;;2244334;61;20404;-62
2022/05/12 09:56:01;0.00;0.00;0.62;0.00;0.00;0.62;2.90;1.40;;;24.00;27.50;;;;;;2244572;61;20368;-59
2022/05/12 09:58:57;0.00;0.00;0.62;0.00;0.00;0.62;4.80;1.77;;;24.00;27.50;;;;;;2244717;61;20457;-57
2022/05/12 10:01:52;0.00;0.00;0.62;0.00;0.00;0.62;4.90;2.10;;;24.10;27.50;;;;;;2244208;61;20781;-63
2022/05/12 10:08:02;0.00;0.00;0.62;0.00;0.00;0.62;3.50;1.10;;;24.10;27.40;;;;;;2244345;61;20449;-58
2022/05/12 10:10:52;0.00;0.00;0.62;0.00;0.00;0.62;2.70;1.33;;;24.20;27.50;;;;;;2243779;61;20345;-64
2022/05/12 10:13:44;0.00;0.00;0.62;0.00;0.00;0.62;2.50;1.60;;;24.20;27.50;;;;;;2244778;61;20439;-65
2022/05/12 10:16:32;0.00;0.00;0.62;0.00;0.00;0.62;2.13;1.40;;;24.20;27.40;;;;;;2244516;61;20445;-63
2022/05/12 10:19:22;0.00;0.00;0.62;0.00;0.00;0.62;1.90;1.40;;;24.20;27.20;;;;;;2244449;61;20453;-65
2022/05/12 10:22:14;0.00;0.00;0.62;0.00;0.00;0.62;3.57;1.20;;;24.30;27.10;;;;;;2244349;61;20789;-66
2022/05/12 10:25:16;0.00;0.00;0.62;0.00;0.00;0.62;2.57;1.80;;;24.30;27.10;;;;;;2244735;61;20384;-63
2022/05/12 10:28:12;0.00;0.00;0.62;0.00;0.00;0.62;2.57;1.40;;;24.30;27.00;;;;;;2244688;61;20965;-66
2022/05/12 10:31:09;0.00;0.00;0.62;0.00;0.00;0.62;4.93;1.83;;;24.40;26.90;;;;;;2244086;61;20982;-64
2022/05/12 10:34:23;0.00;0.00;0.62;0.00;0.00;0.62;2.00;1.50;;;24.40;26.90;;;;;;2243925;61;20461;-63
2022/05/12 10:37:27;0.00;0.00;0.62;0.00;0.00;0.62;2.80;1.00;;;24.40;26.80;;;;;;2244106;61;21089;-63
2022/05/12 10:40:26;0.00;0.00;0.62;0.00;0.00;0.62;4.60;1.27;;;24.50;26.60;;;;;;2244071;61;20782;-61
2022/05/12 10:43:32;0.00;0.00;0.62;0.00;0.00;0.62;2.80;1.30;;;24.50;26.70;;;;;;2243991;61;20412;-63
2022/05/12 10:46:23;0.00;0.00;0.62;0.00;0.00;0.62;3.50;1.43;;;24.50;26.70;;;;;;2244558;61;20364;-62
2022/05/12 10:49:19;0.00;0.00;0.62;0.00;0.00;0.62;2.10;1.43;;;24.60;26.70;;;;;;2244411;61;20364;-62
2022/05/12 10:52:19;0.00;0.00;0.62;0.00;0.00;0.62;2.00;1.27;;;24.60;26.60;;;;;;2243434;61;20412;-62
2022/05/12 10:55:21;0.00;0.00;0.62;0.00;0.00;0.62;3.10;1.50;;;24.70;26.60;;;;;;2244153;61;20461;-62
2022/05/12 10:58:26;0.00;0.00;0.62;0.00;0.00;0.62;3.40;1.30;;;24.70;26.50;;;;;;2243972;61;20428;-62
2022/05/12 11:01:18;0.00;0.00;0.62;0.00;0.00;0.62;2.83;1.00;;;24.80;26.50;;;;;;2243617;61;20364;-62
2022/05/12 11:04:09;0.00;0.00;0.62;0.00;0.00;0.62;1.90;1.20;;;24.90;26.60;;;;;;2243955;61;20436;-61
2022/05/12 11:07:00;0.00;0.00;0.62;0.00;0.00;0.62;1.93;1.13;;;24.90;26.60;;;;;;2243921;61;20440;-62
2022/05/12 11:09:50;0.00;0.00;0.62;0.00;0.00;0.62;1.83;1.20;;;24.90;26.60;;;;;;2244023;61;20377;-60
2022/05/12 11:12:43;0.00;0.00;0.62;0.00;0.00;0.62;2.47;1.20;;;25.00;26.70;;;;;;2243512;61;20409;-63
2022/05/12 11:15:38;0.00;0.00;0.62;0.00;0.00;0.62;3.67;1.50;;;25.00;26.70;;;;;;2243881;61;20388;-61
2022/05/12 11:18:33;0.00;0.00;0.62;0.00;0.00;0.62;1.70;1.03;;;25.00;26.70;;;;;;2244112;61;20364;-65
2022/05/12 11:21:25;0.00;0.00;0.62;0.00;0.00;0.62;2.50;1.40;;;25.10;26.80;;;;;;2243310;61;20957;-63